Time;durP1;ratioP1;P1;durP2;ratioP2;P2;SDS_P1;SDS_P2;PMS_P1;PMS_P2;Temp;Humidity;BMP_temperature;BMP_pressure;BME280_temperature;BME280_humidity;BME280_pressure;Samples;Min_cycle;Max_cycle;Signal;HPM_P1;HPM_P2
2022/11/15 00:01:38;;;;;;;9.93;8.93;;;10.30;1.00;;;;;;4967835;28;20284;-65
2022/11/15 00:04:04;;;;;;;10.07;7.53;;;10.30;1.00;;;;;;4968245;28;20623;-65
2022/11/15 00:06:30;;;;;;;12.20;6.80;;;10.30;5.60;;;;;;4968406;28;20169;-66
2022/11/15 00:08:58;;;;;;;12.73;7.60;;;10.20;6.20;;;;;;4968308;28;20409;-65
2022/11/15 00:11:24;;;;;;;40.57;8.50;;;10.20;91.80;;;;;;4968057;28;20197;-66
2022/11/15 00:13:49;;;;;;;10.10;7.53;;;10.30;99.90;;;;;;4968219;28;20416;-66
2022/11/15 00:16:15;;;;;;;10.43;6.27;;;10.30;49.60;;;;;;4968658;28;20459;-66
2022/11/15 00:18:41;;;;;;;13.87;7.57;;;10.30;82.60;;;;;;4967869;28;20696;-65
2022/11/15 00:21:10;;;;;;;10.60;7.13;;;10.30;37.60;;;;;;4966489;28;20177;-65
2022/11/15 00:23:36;;;;;;;8.83;7.97;;;10.20;77.80;;;;;;4968615;28;20422;-65
2022/11/15 00:26:01;;;;;;;9.40;7.40;;;10.20;92.20;;;;;;4968716;28;20522;-65
2022/11/15 00:28:27;;;;;;;9.60;8.43;;;10.20;99.90;;;;;;4969124;28;20559;-65
2022/11/15 00:30:53;;;;;;;11.00;8.00;;;10.10;99.90;;;;;;4967254;28;20625;-66
2022/11/15 00:33:19;;;;;;;10.87;8.47;;;10.00;99.90;;;;;;4968611;28;20217;-65
2022/11/15 00:35:45;;;;;;;11.67;8.70;;;9.80;99.90;;;;;;4967579;28;20522;-65
2022/11/15 00:38:10;;;;;;;9.50;8.43;;;9.70;99.90;;;;;;4968609;28;20173;-66
2022/11/15 00:40:36;;;;;;;10.10;7.67;;;9.50;99.90;;;;;;4967355;28;20421;-66
2022/11/15 00:43:02;;;;;;;8.10;7.30;;;9.50;1.00;;;;;;4968094;28;20241;-66
2022/11/15 00:45:27;;;;;;;11.53;8.43;;;9.40;1.00;;;;;;4968002;28;20803;-67
2022/11/15 00:47:53;;;;;;;11.20;8.50;;;9.40;1.00;;;;;;4967720;28;20614;-66
2022/11/15 00:50:19;;;;;;;10.63;7.53;;;9.30;1.00;;;;;;4968149;28;20596;-66
2022/11/15 00:52:45;;;;;;;10.13;8.13;;;9.40;1.00;;;;;;4967547;28;20194;-66
2022/11/15 00:55:15;;;;;;;10.80;8.03;;;9.40;1.00;;;;;;4967810;28;20224;-66
2022/11/15 00:57:41;;;;;;;10.53;8.23;;;9.40;1.00;;;;;;4968194;28;20409;-66
2022/11/15 01:00:08;;;;;;;8.03;6.87;;;9.50;1.00;;;;;;4964184;28;20424;-65
2022/11/15 01:02:34;;;;;;;13.70;8.23;;;9.50;99.90;;;;;;4948275;29;20293;-66
2022/11/15 01:05:00;;;;;;;10.40;8.10;;;9.50;1.00;;;;;;4949123;29;20413;-65
2022/11/15 01:07:26;;;;;;;11.13;8.73;;;9.60;1.00;;;;;;4950166;29;20417;-66
2022/11/15 01:09:51;;;;;;;11.27;8.50;;;9.60;99.90;;;;;;4951199;29;20190;-66
2022/11/15 01:12:17;;;;;;;10.13;8.50;;;9.70;99.90;;;;;;4950894;29;20205;-65
2022/11/15 01:14:43;;;;;;;13.77;7.93;;;9.70;99.90;;;;;;4951794;29;20646;-66
2022/11/15 01:17:09;;;;;;;10.47;8.37;;;9.80;99.90;;;;;;4951571;29;20248;-66
2022/11/15 01:19:34;;;;;;;11.87;9.43;;;9.70;99.90;;;;;;4951839;29;20173;-66
2022/11/15 01:22:00;;;;;;;13.67;9.90;;;9.70;99.90;;;;;;4950580;29;20206;-66
2022/11/15 01:24:26;;;;;;;20.37;9.17;;;9.70;99.90;;;;;;4951656;29;20178;-66
2022/11/15 01:26:52;;;;;;;14.63;8.53;;;9.80;99.90;;;;;;4950980;29;20257;-66
2022/11/15 01:29:18;;;;;;;10.73;8.70;;;9.70;99.90;;;;;;4950969;29;20501;-66
2022/11/15 01:31:43;;;;;;;15.43;8.80;;;9.70;99.90;;;;;;4949840;28;20675;-66
2022/11/15 01:34:09;;;;;;;10.33;8.40;;;9.70;99.90;;;;;;4954383;29;20189;-65
2022/11/15 01:36:35;;;;;;;11.93;8.37;;;9.80;99.90;;;;;;4953761;29;20240;-66
2022/11/15 01:39:00;;;;;;;9.80;7.77;;;9.70;99.90;;;;;;4954027;29;20186;-66
2022/11/15 01:41:32;;;;;;;16.40;10.63;;;9.70;99.90;;;;;;4952649;29;20636;-66
2022/11/15 01:44:35;;;;;;;15.20;8.67;;;9.70;99.90;;;;;;4953962;29;20712;-65
2022/11/15 01:47:07;;;;;;;8.70;7.80;;;9.60;99.90;;;;;;4953640;28;20402;-66
2022/11/15 01:49:35;;;;;;;8.83;7.40;;;9.70;99.90;;;;;;4953979;29;20500;-66
2022/11/15 01:52:03;;;;;;;10.73;7.80;;;9.70;99.90;;;;;;4952251;29;20442;-66
2022/11/15 01:54:29;;;;;;;14.20;7.97;;;9.70;99.90;;;;;;4953536;29;20410;-65
2022/11/15 01:57:03;;;;;;;12.97;9.87;;;9.70;99.90;;;;;;4953450;29;20476;-66
2022/11/15 01:59:30;;;;;;;8.37;6.63;;;9.70;99.90;;;;;;4953872;29;20492;-66
2022/11/15 02:01:56;;;;;;;12.17;6.53;;;9.60;99.90;;;;;;4954979;28;20469;-64
2022/11/15 02:04:45;;;;;;;8.70;5.87;;;9.60;99.90;;;;;;4953372;29;20771;-65
2022/11/15 02:07:14;;;;;;;13.13;8.50;;;9.60;99.90;;;;;;4950406;28;20431;-65
2022/11/15 02:09:40;;;;;;;10.90;6.23;;;9.50;99.90;;;;;;4953396;29;20406;-66
2022/11/15 02:12:09;;;;;;;13.93;6.33;;;9.60;99.90;;;;;;4952932;29;20444;-65
2022/11/15 02:14:37;;;;;;;10.03;6.87;;;9.60;99.90;;;;;;4953763;29;20197;-65
2022/11/15 02:17:39;;;;;;;8.43;7.10;;;9.50;99.90;;;;;;4953743;29;20923;-65
2022/11/15 02:20:41;;;;;;;10.40;6.57;;;9.60;99.90;;;;;;4953604;29;20509;-64
2022/11/15 02:23:15;;;;;;;8.10;6.50;;;9.50;99.90;;;;;;4953068;29;20492;-66
2022/11/15 02:25:43;;;;;;;14.93;9.90;;;9.40;99.90;;;;;;4953040;29;20441;-65
2022/11/15 02:28:28;;;;;;;8.70;6.60;;;9.40;99.90;;;;;;4953308;29;20448;-66
2022/11/15 02:31:02;;;;;;;15.83;7.47;;;9.30;1.00;;;;;;4952586;29;20505;-65
2022/11/15 02:33:34;;;;;;;12.30;6.77;;;9.10;1.00;;;;;;4952732;29;20461;-65
2022/11/15 02:36:09;;;;;;;15.27;8.47;;;8.80;1.00;;;;;;4952760;29;20426;-66
2022/11/15 02:38:47;;;;;;;10.63;7.23;;;8.70;1.00;;;;;;4953160;29;20414;-65
2022/11/15 02:41:23;;;;;;;15.57;8.33;;;8.70;1.00;;;;;;4952036;29;20449;-65
2022/11/15 02:44:07;;;;;;;15.00;8.30;;;8.70;1.00;;;;;;4952271;28;20472;-66
2022/11/15 02:47:22;;;;;;;8.70;7.80;;;8.80;1.00;;;;;;4952803;29;20816;-65
2022/11/15 02:49:52;;;;;;;11.13;7.97;;;8.90;1.00;;;;;;4948209;29;20433;-65
2022/11/15 02:52:21;;;;;;;9.03;8.07;;;8.90;1.00;;;;;;4952324;29;20441;-66
2022/11/15 02:55:00;;;;;;;9.50;8.20;;;8.80;1.00;;;;;;4953057;29;20409;-65
2022/11/15 02:57:51;;;;;;;9.20;8.27;;;8.60;1.00;;;;;;4952822;29;20970;-66
2022/11/15 03:00:19;;;;;;;12.80;8.80;;;8.60;1.00;;;;;;4952650;29;20426;-66
2022/11/15 03:03:15;;;;;;;10.63;8.80;;;8.60;1.00;;;;;;4950976;29;20473;-66
2022/11/15 03:05:59;;;;;;;11.37;8.93;;;8.60;1.00;;;;;;4952407;29;20421;-65
2022/11/15 03:08:49;;;;;;;12.03;8.80;;;8.50;1.00;;;;;;4952877;29;20711;-66
2022/11/15 03:11:20;;;;;;;12.93;8.30;;;8.30;1.00;;;;;;4952068;29;20402;-67
2022/11/15 03:14:13;;;;;;;14.50;9.47;;;8.50;1.00;;;;;;4952776;29;20449;-66
2022/11/15 03:17:10;;;;;;;11.17;8.60;;;8.50;1.00;;;;;;4952452;29;20409;-66
2022/11/15 03:19:40;;;;;;;9.30;8.50;;;8.30;1.00;;;;;;4952565;29;20899;-65
2022/11/15 03:22:11;;;;;;;11.33;8.47;;;8.40;1.00;;;;;;4951657;29;20501;-65
2022/11/15 03:24:38;;;;;;;11.23;8.23;;;8.50;1.00;;;;;;4952175;29;20409;-66
2022/11/15 03:27:09;;;;;;;12.60;9.33;;;8.50;1.00;;;;;;4952259;29;20414;-66
2022/11/15 03:29:41;;;;;;;14.60;11.00;;;8.60;1.00;;;;;;4952348;29;20417;-67
2022/11/15 03:32:16;;;;;;;13.00;9.53;;;8.70;1.00;;;;;;4951185;29;20632;-66
2022/11/15 03:34:44;;;;;;;13.83;9.03;;;8.70;1.00;;;;;;4952107;29;20785;-65
2022/11/15 03:37:14;;;;;;;21.47;9.60;;;8.70;1.00;;;;;;4951823;29;20752;-65
2022/11/15 03:39:39;;;;;;;13.90;8.57;;;8.70;1.00;;;;;;4951987;29;20422;-65
2022/11/15 03:42:21;;;;;;;13.50;8.50;;;8.70;1.00;;;;;;4951355;28;20468;-67
2022/11/15 03:44:58;;;;;;;9.40;7.27;;;8.70;1.00;;;;;;4952261;29;20201;-66
2022/11/15 03:47:31;;;;;;;8.33;7.47;;;8.60;1.00;;;;;;4952050;29;20406;-66
2022/11/15 03:50:06;;;;;;;11.60;7.93;;;8.60;1.00;;;;;;4952251;29;20406;-67
2022/11/15 03:52:34;;;;;;;11.90;8.87;;;8.50;1.00;;;;;;4951163;29;20944;-64
2022/11/15 03:55:02;;;;;;;9.03;7.27;;;8.40;1.00;;;;;;4951703;28;20433;-66
2022/11/15 03:57:29;;;;;;;10.97;7.63;;;8.30;1.00;;;;;;4951813;29;20417;-66
2022/11/15 03:59:54;;;;;;;8.60;7.77;;;8.40;1.00;;;;;;4951769;29;20502;-65
2022/11/15 04:02:20;;;;;;;10.27;7.77;;;8.20;1.00;;;;;;4951423;29;20469;-66
2022/11/15 04:04:46;;;;;;;8.10;7.30;;;8.10;1.00;;;;;;4951944;29;20637;-65
2022/11/15 04:07:11;;;;;;;10.60;9.20;;;8.10;1.00;;;;;;4951711;29;20174;-65
2022/11/15 04:12:30;;;;;;;12.60;8.37;;;8.20;1.00;;;;;;4951724;29;20288;-66
2022/11/15 04:15:06;;;;;;;10.57;8.20;;;8.30;1.00;;;;;;4951887;29;20420;-66
2022/11/15 04:17:52;;;;;;;12.57;8.57;;;8.30;1.00;;;;;;4951945;29;20932;-66
2022/11/15 04:25:52;;;;;;;15.80;8.50;;;8.40;1.00;;;;;;4951363;29;20448;-66
2022/11/15 04:28:18;;;;;;;11.83;9.40;;;8.50;1.00;;;;;;4951798;29;20764;-66
2022/11/15 04:30:44;;;;;;;12.93;9.80;;;8.50;1.00;;;;;;4950420;29;20505;-65
2022/11/15 04:33:10;;;;;;;15.60;11.20;;;8.50;1.00;;;;;;4951336;29;20653;-65
2022/11/15 04:35:36;;;;;;;16.30;10.90;;;8.50;1.00;;;;;;4951510;29;20499;-66
2022/11/15 04:38:04;;;;;;;13.20;10.73;;;8.50;1.00;;;;;;4952005;29;20178;-65
2022/11/15 04:40:29;;;;;;;10.60;9.47;;;8.50;1.00;;;;;;4951049;29;20639;-66
2022/11/15 04:42:55;;;;;;;10.30;9.00;;;8.30;1.00;;;;;;4951414;29;20497;-65
2022/11/15 04:45:21;;;;;;;10.17;8.30;;;8.10;1.00;;;;;;4951425;29;20179;-66
2022/11/15 04:47:47;;;;;;;10.03;7.33;;;8.20;1.00;;;;;;4951917;29;20402;-64
2022/11/15 04:50:14;;;;;;;9.50;7.30;;;8.60;1.00;;;;;;4951419;29;20175;-65
2022/11/15 04:52:52;;;;;;;10.87;9.73;;;10.40;1.00;;;;;;4950881;28;20466;-65
2022/11/15 04:55:17;;;;;;;10.73;9.67;;;10.20;1.00;;;;;;4951400;28;20437;-66
2022/11/15 04:57:43;;;;;;;11.30;9.87;;;9.50;99.90;;;;;;4951308;29;20430;-66
2022/11/15 05:00:12;;;;;;;15.40;11.80;;;9.10;1.00;;;;;;4954514;28;20264;-65
2022/11/15 05:05:24;;;;;;;12.77;10.83;;;8.70;1.00;;;;;;4970718;28;20772;-65
2022/11/15 05:07:49;;;;;;;11.90;10.00;;;8.60;1.00;;;;;;4971797;28;20424;-65
2022/11/15 05:10:15;;;;;;;12.33;9.83;;;8.50;1.00;;;;;;4973523;28;20417;-65
2022/11/15 05:12:41;;;;;;;17.50;10.03;;;8.50;1.00;;;;;;4973724;28;20193;-66
2022/11/15 05:15:07;;;;;;;13.90;9.43;;;8.40;1.00;;;;;;4973651;28;20200;-65
2022/11/15 05:17:32;;;;;;;11.70;10.50;;;8.30;1.00;;;;;;4974024;28;20200;-65
2022/11/15 05:19:58;;;;;;;11.03;9.33;;;8.20;1.00;;;;;;4973872;28;20428;-66
2022/11/15 05:22:24;;;;;;;11.20;10.10;;;8.30;1.00;;;;;;4972464;28;20399;-66
2022/11/15 05:24:49;;;;;;;12.57;11.10;;;8.40;1.00;;;;;;4973698;28;20181;-65
2022/11/15 05:27:15;;;;;;;12.77;9.70;;;8.40;1.00;;;;;;4973727;28;20192;-65
2022/11/15 05:29:41;;;;;;;14.63;10.20;;;8.40;1.00;;;;;;4973705;28;20612;-65
2022/11/15 05:32:09;;;;;;;11.23;10.07;;;8.50;1.00;;;;;;4972997;28;20291;-65
2022/11/15 05:34:34;;;;;;;12.13;9.77;;;8.50;1.00;;;;;;4973654;28;20181;-66
2022/11/15 05:37:00;;;;;;;11.00;9.67;;;8.40;1.00;;;;;;4973141;28;20421;-65
2022/11/15 05:39:26;;;;;;;21.63;9.90;;;8.40;1.00;;;;;;4973684;28;20173;-65
2022/11/15 05:42:01;;;;;;;10.80;9.00;;;8.40;1.00;;;;;;4972337;28;20248;-66
2022/11/15 05:44:27;;;;;;;14.23;9.50;;;8.40;1.00;;;;;;4973823;28;20177;-67
2022/11/15 05:46:54;;;;;;;15.00;11.37;;;8.50;1.00;;;;;;4973233;28;20597;-66
2022/11/15 05:49:24;;;;;;;14.27;9.37;;;8.50;1.00;;;;;;4973677;28;20409;-66
2022/11/15 05:51:51;;;;;;;11.57;9.80;;;8.50;1.00;;;;;;4972303;28;20464;-65
2022/11/15 05:54:19;;;;;;;12.10;9.97;;;8.40;1.00;;;;;;4973598;28;20415;-66
2022/11/15 05:56:45;;;;;;;11.50;9.53;;;8.50;1.00;;;;;;4972978;28;20468;-66
2022/11/15 05:59:11;;;;;;;9.97;8.73;;;8.40;1.00;;;;;;4972955;28;20429;-66
2022/11/15 06:01:37;;;;;;;10.53;8.60;;;8.40;1.00;;;;;;4962372;28;20456;-66
2022/11/15 06:04:03;;;;;;;11.07;8.23;;;8.30;1.00;;;;;;4973304;28;20859;-65
2022/11/15 06:06:29;;;;;;;13.90;9.77;;;8.40;1.00;;;;;;4972234;28;20500;-66
2022/11/15 06:08:54;;;;;;;24.70;10.17;;;8.10;1.00;;;;;;4972927;28;20551;-66
2022/11/15 06:11:20;;;;;;;12.77;11.47;;;8.00;1.00;;;;;;4971796;28;20645;-65
2022/11/15 06:13:46;;;;;;;30.57;15.30;;;7.70;1.00;;;;;;4973242;28;20202;-66
2022/11/15 06:16:11;;;;;;;17.63;12.03;;;7.60;1.00;;;;;;4972475;28;20233;-66
2022/11/15 06:18:37;;;;;;;12.93;10.70;;;7.60;1.00;;;;;;4972184;28;20480;-67
2022/11/15 06:21:04;;;;;;;14.60;11.67;;;7.60;1.00;;;;;;4972334;28;20873;-67
2022/11/15 06:23:34;;;;;;;14.60;11.53;;;7.60;1.00;;;;;;4975040;28;20830;-67
2022/11/15 06:26:01;;;;;;;16.13;11.40;;;7.70;1.00;;;;;;4974258;28;20432;-67
2022/11/15 06:28:33;;;;;;;14.87;12.20;;;7.70;1.00;;;;;;4973803;28;20405;-67
2022/11/15 06:31:13;;;;;;;20.37;11.63;;;7.50;1.00;;;;;;4972757;28;20426;-67
2022/11/15 06:33:40;;;;;;;13.43;11.87;;;7.40;1.00;;;;;;4974228;28;20448;-66
2022/11/15 06:36:08;;;;;;;15.70;11.57;;;7.40;1.00;;;;;;4973099;28;20416;-66
2022/11/15 06:38:34;;;;;;;15.40;12.43;;;7.50;1.00;;;;;;4972146;28;20911;-65
2022/11/15 06:41:08;;;;;;;13.87;10.60;;;7.60;1.00;;;;;;4971345;28;20423;-66
2022/11/15 06:43:35;;;;;;;13.43;10.03;;;7.80;1.00;;;;;;4973104;28;20973;-66
2022/11/15 06:46:03;;;;;;;15.97;10.30;;;7.80;1.00;;;;;;4971679;28;20866;-67
2022/11/15 06:48:29;;;;;;;12.30;10.70;;;8.20;1.00;;;;;;4971630;28;20504;-65
2022/11/15 06:50:57;;;;;;;12.40;11.17;;;8.40;1.00;;;;;;4971269;28;20952;-66
2022/11/15 06:53:23;;;;;;;13.00;10.03;;;8.50;99.90;;;;;;4971748;28;20452;-66
2022/11/15 06:55:49;;;;;;;12.43;10.20;;;9.30;1.00;;;;;;4971883;28;21048;-66
2022/11/15 06:58:15;;;;;;;11.80;9.63;;;9.80;1.00;;;;;;4972231;28;20507;-66
2022/11/15 07:00:41;;;;;;;10.37;9.47;;;10.40;99.90;;;;;;4971729;28;20456;-67
2022/11/15 07:03:07;;;;;;;15.37;9.80;;;10.70;99.90;;;;;;4971782;28;20205;-67
2022/11/15 07:05:33;;;;;;;13.47;10.30;;;10.80;1.00;;;;;;4971838;28;20401;-66
2022/11/15 07:08:00;;;;;;;13.23;9.10;;;10.80;1.00;;;;;;4971875;28;20182;-65
2022/11/15 07:10:26;;;;;;;10.50;9.50;;;11.20;1.00;;;;;;4971398;28;20417;-66
2022/11/15 07:12:53;;;;;;;11.57;10.47;;;11.60;99.90;;;;;;4971399;28;20443;-66
2022/11/15 07:15:22;;;;;;;11.43;10.30;;;11.80;99.90;;;;;;4971715;28;20781;-66
2022/11/15 07:17:49;;;;;;;12.47;11.17;;;11.60;99.90;;;;;;4971669;28;20468;-66
2022/11/15 07:20:15;;;;;;;13.37;11.20;;;12.00;99.90;;;;;;4971239;28;20416;-67
2022/11/15 07:22:41;;;;;;;11.80;10.70;;;13.40;1.00;;;;;;4971117;28;20492;-65
2022/11/15 07:25:07;;;;;;;12.77;10.83;;;14.40;1.00;;;;;;4971759;28;20815;-66
2022/11/15 07:27:33;;;;;;;14.23;12.53;;;15.20;1.00;;;;;;4971143;28;20205;-65
2022/11/15 07:29:59;;;;;;;11.93;10.83;;;16.00;99.90;;;;;;4970960;28;20526;-66
2022/11/15 07:32:25;;;;;;;13.70;12.07;;;16.50;99.90;;;;;;4970831;28;20460;-66
2022/11/15 07:34:50;;;;;;;12.10;10.70;;;16.30;99.90;;;;;;4971787;28;20236;-66
2022/11/15 07:37:16;;;;;;;14.90;11.43;;;16.00;99.90;;;;;;4970724;28;20182;-65
2022/11/15 07:39:42;;;;;;;14.47;10.33;;;15.90;99.90;;;;;;4970890;28;20512;-66
2022/11/15 07:44:52;;;;;;;31.40;12.57;;;16.30;99.90;;;;;;4971332;28;20416;-66
2022/11/15 07:47:18;;;;;;;15.67;10.77;;;17.20;99.90;;;;;;4970962;28;20425;-66
2022/11/15 07:49:45;;;;;;;19.37;12.03;;;17.70;99.90;;;;;;4971454;28;20185;-66
2022/11/15 07:52:11;;;;;;;11.03;9.77;;;18.40;99.90;;;;;;4967183;28;20209;-66
2022/11/15 07:54:37;;;;;;;62.47;16.40;;;17.50;99.90;;;;;;4967285;28;20424;-65
2022/11/15 07:57:03;;;;;;;25.77;13.23;;;18.00;99.90;;;;;;4951326;29;20554;-66
2022/11/15 07:59:29;;;;;;;23.30;12.10;;;18.20;99.90;;;;;;4952416;28;20182;-66
2022/11/15 08:01:54;;;;;;;19.90;13.67;;;18.50;99.90;;;;;;4963148;28;20476;-66
2022/11/15 08:04:20;;;;;;;18.60;12.67;;;19.40;99.90;;;;;;4959531;28;20709;-65
2022/11/15 08:06:45;;;;;;;14.77;12.63;;;19.60;99.90;;;;;;4953170;28;20283;-67
2022/11/15 08:09:11;;;;;;;15.27;13.67;;;19.60;99.90;;;;;;4963082;28;20178;-66
2022/11/15 08:11:37;;;;;;;16.90;13.27;;;19.50;99.90;;;;;;4965960;28;20186;-66
2022/11/15 08:14:03;;;;;;;14.33;12.80;;;20.10;99.90;;;;;;4963019;28;20210;-65
2022/11/15 08:16:29;;;;;;;12.77;11.30;;;20.60;99.90;;;;;;4960428;28;20189;-67
2022/11/15 08:18:54;;;;;;;13.87;11.63;;;20.40;99.90;;;;;;4953002;28;20166;-67
2022/11/15 08:21:21;;;;;;;12.20;11.10;;;20.40;99.90;;;;;;4961080;28;20781;-67
2022/11/15 08:23:47;;;;;;;13.93;10.50;;;20.20;99.90;;;;;;4970270;28;20561;-66
2022/11/15 08:26:13;;;;;;;13.37;11.10;;;19.80;99.90;;;;;;4970412;28;20425;-66
2022/11/15 08:28:38;;;;;;;12.20;11.00;;;19.30;99.90;;;;;;4963163;28;20884;-66
2022/11/15 08:31:04;;;;;;;13.67;11.20;;;18.80;99.90;;;;;;4957586;28;20193;-66
2022/11/15 08:33:32;;;;;;;11.90;10.80;;;18.90;99.90;;;;;;4962756;28;20246;-67
2022/11/15 08:35:59;;;;;;;12.23;11.00;;;19.90;99.90;;;;;;4960086;28;20457;-67
2022/11/15 08:38:25;;;;;;;11.80;10.03;;;20.70;99.90;;;;;;4957019;28;20786;-68
2022/11/15 08:41:01;;;;;;;12.67;10.70;;;21.50;99.90;;;;;;4959517;28;20437;-67
2022/11/15 08:43:26;;;;;;;18.43;11.57;;;21.30;99.90;;;;;;4970095;28;20209;-67
2022/11/15 08:45:56;;;;;;;33.03;13.50;;;20.90;99.90;;;;;;4964048;28;20465;-67
2022/11/15 08:48:21;;;;;;;38.60;13.87;;;21.50;99.90;;;;;;4955074;28;20168;-68
2022/11/15 08:50:47;;;;;;;21.27;11.20;;;21.80;99.90;;;;;;4953751;28;20414;-69
2022/11/15 08:53:13;;;;;;;21.40;12.03;;;21.20;99.90;;;;;;4954954;28;20194;-67
2022/11/15 08:55:40;;;;;;;19.20;13.37;;;19.40;99.90;;;;;;4956529;28;20205;-68
2022/11/15 08:58:06;;;;;;;67.03;16.67;;;17.80;99.90;;;;;;4965327;28;20213;-68
2022/11/15 09:00:33;;;;;;;22.37;13.90;;;16.50;99.90;;;;;;4965684;28;20460;-67
2022/11/15 09:02:59;;;;;;;35.77;13.93;;;15.40;99.90;;;;;;4964123;28;20469;-68
2022/11/15 09:05:25;;;;;;;19.37;13.93;;;14.80;99.90;;;;;;4962650;28;20922;-67
2022/11/15 09:07:54;;;;;;;29.80;13.77;;;14.70;99.90;;;;;;4956922;28;20774;-71
2022/11/15 09:10:21;;;;;;;16.47;14.87;;;14.60;99.90;;;;;;4973672;28;20561;-66
2022/11/15 09:12:48;;;;;;;18.97;15.77;;;14.50;99.90;;;;;;4973647;28;20440;-66
2022/11/15 09:15:15;;;;;;;20.83;16.80;;;14.10;99.90;;;;;;4974159;28;20903;-69
2022/11/15 09:17:41;;;;;;;20.53;17.40;;;14.40;99.90;;;;;;4974067;28;20413;-68
2022/11/15 09:20:07;;;;;;;34.17;30.33;;;14.70;99.90;;;;;;4969944;28;20576;-67
2022/11/15 09:22:33;;;;;;;43.87;37.17;;;14.80;99.90;;;;;;4952944;28;20304;-67
2022/11/15 09:24:59;;;;;;;37.93;33.27;;;15.10;99.90;;;;;;4954613;29;20557;-67
2022/11/15 09:27:28;;;;;;;22.53;19.57;;;15.30;99.90;;;;;;4956723;28;20181;-67
2022/11/15 09:29:54;;;;;;;22.30;18.87;;;15.60;99.90;;;;;;4973689;28;20181;-68
2022/11/15 09:32:20;;;;;;;23.73;18.50;;;15.80;99.90;;;;;;4968620;28;20514;-68
2022/11/15 09:34:46;;;;;;;23.87;21.37;;;16.10;99.90;;;;;;4962756;28;20182;-67
2022/11/15 09:37:12;;;;;;;32.80;27.33;;;16.30;99.90;;;;;;4965727;28;20194;-68
2022/11/15 09:39:37;;;;;;;54.53;31.80;;;15.60;99.90;;;;;;4959946;28;20174;-68
2022/11/15 09:42:15;;;;;;;46.00;29.03;;;14.80;99.90;;;;;;4955764;28;20470;-69
2022/11/15 09:44:46;;;;;;;31.00;26.20;;;14.20;99.90;;;;;;4976589;28;20170;-68
2022/11/15 09:47:33;;;;;;;55.27;26.23;;;13.70;99.90;;;;;;4978352;28;20409;-67
2022/11/15 09:50:01;;;;;;;31.33;22.93;;;13.60;99.90;;;;;;4975662;28;20409;-68
2022/11/15 09:52:27;;;;;;;36.10;24.07;;;13.90;99.90;;;;;;4966202;28;20442;-67
2022/11/15 09:54:54;;;;;;;29.93;24.67;;;14.60;99.90;;;;;;4962709;28;20417;-67
2022/11/15 09:57:31;;;;;;;28.57;25.60;;;15.20;99.90;;;;;;4960815;28;20465;-68
2022/11/15 10:00:08;;;;;;;47.53;31.73;;;14.90;99.90;;;;;;4959462;29;20425;-67
2022/11/15 10:02:46;;;;;;;37.07;30.57;;;14.20;99.90;;;;;;4973650;28;20461;-67
2022/11/15 10:05:18;;;;;;;29.23;25.80;;;13.80;99.90;;;;;;4970320;28;20907;-67
2022/11/15 10:08:15;;;;;;;36.80;33.07;;;13.60;99.90;;;;;;4970669;28;20405;-67
2022/11/15 10:10:46;;;;;;;38.90;31.97;;;13.80;99.90;;;;;;4973697;28;20772;-67
2022/11/15 10:13:42;;;;;;;33.57;29.97;;;13.80;99.90;;;;;;4969646;28;20445;-67
2022/11/15 10:16:28;;;;;;;36.03;32.07;;;13.60;99.90;;;;;;4958345;28;20450;-67
2022/11/15 10:19:24;;;;;;;35.30;30.57;;;13.70;99.90;;;;;;4956000;28;20418;-68
2022/11/15 10:22:01;;;;;;;27.47;24.53;;;14.40;99.90;;;;;;4966066;28;20511;-68
2022/11/15 10:24:33;;;;;;;27.47;20.80;;;14.00;99.90;;;;;;4974581;28;20413;-66
2022/11/15 10:27:00;;;;;;;25.10;18.90;;;14.80;99.90;;;;;;4972247;28;20487;-67
2022/11/15 10:29:26;;;;;;;23.33;17.60;;;15.60;99.90;;;;;;4973450;28;20410;-67
2022/11/15 10:31:52;;;;;;;22.73;17.23;;;15.80;99.90;;;;;;4971854;28;20472;-68
2022/11/15 10:34:20;;;;;;;32.37;18.07;;;16.00;99.90;;;;;;4972841;28;20261;-68
2022/11/15 10:36:56;;;;;;;30.50;17.70;;;16.30;99.90;;;;;;4973463;28;20417;-67
2022/11/15 10:39:22;;;;;;;28.27;19.20;;;16.30;99.90;;;;;;4968444;28;20420;-68
2022/11/15 10:41:47;;;;;;;20.07;17.47;;;15.80;99.90;;;;;;4964270;28;20493;-68
2022/11/15 10:44:32;;;;;;;21.47;16.40;;;16.00;99.90;;;;;;4960801;28;20445;-68
2022/11/15 10:46:57;;;;;;;15.97;14.43;;;16.00;99.90;;;;;;4955919;28;20180;-69
2022/11/15 10:49:28;;;;;;;16.37;13.63;;;16.30;99.90;;;;;;4972399;28;20413;-67
2022/11/15 10:51:59;;;;;;;42.07;16.00;;;16.70;99.90;;;;;;4970782;28;20197;-68
2022/11/15 10:54:39;;;;;;;56.90;20.13;;;16.80;99.90;;;;;;4972589;28;20494;-68
2022/11/15 10:57:16;;;;;;;30.00;17.00;;;17.00;99.90;;;;;;4970428;28;20420;-66
2022/11/15 10:59:48;;;;;;;24.67;16.17;;;17.10;99.90;;;;;;4964709;28;20414;-68
2022/11/15 11:02:56;;;;;;;21.67;16.73;;;17.20;99.90;;;;;;4951340;28;20461;-69
2022/11/15 11:05:27;;;;;;;47.80;20.10;;;17.10;99.90;;;;;;4944389;28;20410;-68
2022/11/15 11:07:59;;;;;;;61.77;19.63;;;16.70;99.90;;;;;;4951864;29;20410;-68
2022/11/15 11:10:24;;;;;;;23.57;14.70;;;16.70;99.90;;;;;;4951559;29;20417;-67
2022/11/15 11:12:50;;;;;;;34.90;16.57;;;16.70;99.90;;;;;;4952397;29;20981;-68
2022/11/15 11:15:17;;;;;;;26.27;17.07;;;16.70;99.90;;;;;;4952433;29;20208;-68
2022/11/15 11:18:03;;;;;;;66.37;21.67;;;16.70;99.90;;;;;;4952457;29;20174;-69
2022/11/15 11:21:13;;;;;;;35.80;17.87;;;16.70;99.90;;;;;;4951944;29;20993;-68
2022/11/15 11:24:10;;;;;;;35.63;20.23;;;16.50;99.90;;;;;;4892866;29;20503;-68
2022/11/15 11:26:41;;;;;;;33.73;17.27;;;16.30;99.90;;;;;;4952371;28;20950;-68
2022/11/15 11:29:36;;;;;;;35.93;16.27;;;16.20;99.90;;;;;;4952265;29;20418;-68
2022/11/15 11:32:29;;;;;;;36.90;15.50;;;16.50;99.90;;;;;;4944852;29;20480;-68
2022/11/15 11:35:06;;;;;;;45.63;16.00;;;16.70;99.90;;;;;;4952269;29;20399;-67
2022/11/15 11:37:43;;;;;;;39.80;16.10;;;16.80;99.90;;;;;;4969614;28;20435;-67
2022/11/15 11:40:12;;;;;;;23.63;12.30;;;16.80;99.90;;;;;;4971456;28;20415;-69
2022/11/15 11:43:09;;;;;;;21.37;12.80;;;16.70;99.90;;;;;;4970406;28;20456;-67
2022/11/15 11:45:56;;;;;;;30.70;12.93;;;16.20;99.90;;;;;;4971168;28;20432;-68
2022/11/15 11:48:42;;;;;;;13.60;10.00;;;16.10;99.90;;;;;;4971625;28;20421;-67
2022/11/15 11:51:23;;;;;;;28.07;11.40;;;15.90;99.90;;;;;;4969992;28;20427;-66
2022/11/15 11:54:25;;;;;;;50.67;15.97;;;15.90;99.90;;;;;;4970906;28;20451;-66
2022/11/15 11:56:54;;;;;;;40.13;13.43;;;16.00;99.90;;;;;;4969849;28;20827;-67
2022/11/15 11:59:46;;;;;;;19.80;11.07;;;16.20;99.90;;;;;;4951742;28;20483;-67
2022/11/15 12:02:38;;;;;;;18.07;10.70;;;16.40;99.90;;;;;;4970266;28;20477;-68
2022/11/15 12:05:20;;;;;;;23.20;11.27;;;16.40;99.90;;;;;;4968275;28;20429;-67
2022/11/15 12:07:48;;;;;;;58.93;13.93;;;16.40;99.90;;;;;;4958727;28;20815;-67
2022/11/15 12:10:35;;;;;;;18.87;10.53;;;16.50;99.90;;;;;;4963946;28;20444;-68
2022/11/15 12:13:13;;;;;;;18.33;9.27;;;16.50;99.90;;;;;;4960000;28;20570;-68
2022/11/15 12:15:52;;;;;;;32.97;11.03;;;16.00;99.90;;;;;;4963253;28;20417;-67
2022/11/15 12:18:18;;;;;;;37.40;11.93;;;16.00;99.90;;;;;;4962266;28;20416;-68
2022/11/15 12:20:59;;;;;;;59.93;15.37;;;16.10;99.90;;;;;;4970133;28;20851;-68
2022/11/15 12:23:32;;;;;;;21.80;10.03;;;16.30;99.90;;;;;;4969719;28;20271;-67
2022/11/15 12:26:06;;;;;;;12.70;8.83;;;16.50;99.90;;;;;;4958493;28;20410;-68
2022/11/15 12:28:42;;;;;;;11.83;8.80;;;16.50;99.90;;;;;;4951660;29;20414;-66
2022/11/15 12:31:32;;;;;;;12.20;7.67;;;16.60;99.90;;;;;;4950701;29;20481;-68
2022/11/15 12:33:58;;;;;;;16.63;9.90;;;16.50;99.90;;;;;;4951875;29;20449;-68
2022/11/15 12:36:24;;;;;;;12.33;9.67;;;16.50;99.90;;;;;;4951143;29;20773;-69
2022/11/15 12:38:49;;;;;;;12.00;9.30;;;16.40;99.90;;;;;;4959189;28;20290;-68
2022/11/15 12:41:17;;;;;;;13.33;9.07;;;16.00;99.90;;;;;;4961861;28;20182;-67
2022/11/15 12:43:44;;;;;;;12.93;9.47;;;15.70;99.90;;;;;;4951848;28;20202;-69
2022/11/15 12:46:19;;;;;;;12.27;9.60;;;15.40;99.90;;;;;;4960253;28;20484;-68
2022/11/15 12:48:51;;;;;;;9.80;8.90;;;15.30;99.90;;;;;;4963465;28;20476;-67
2022/11/15 12:51:19;;;;;;;9.63;8.70;;;15.10;99.90;;;;;;4956313;28;20796;-68
2022/11/15 12:53:45;;;;;;;11.07;8.50;;;15.30;99.90;;;;;;4959306;28;20905;-68
2022/11/15 12:56:16;;;;;;;12.70;9.47;;;15.30;99.90;;;;;;4954430;28;20465;-67
2022/11/15 12:58:48;;;;;;;12.30;8.40;;;15.20;99.90;;;;;;4958725;28;20582;-68
2022/11/15 13:01:32;;;;;;;19.23;10.10;;;15.10;99.90;;;;;;4959297;28;20433;-68
2022/11/15 13:04:28;;;;;;;11.37;8.47;;;15.00;99.90;;;;;;4951355;29;20794;-67
2022/11/15 13:06:55;;;;;;;12.87;8.63;;;15.00;99.90;;;;;;4950143;28;20441;-68
2022/11/15 13:09:33;;;;;;;23.50;10.10;;;15.10;99.90;;;;;;4962085;28;20436;-68
2022/11/15 13:12:13;;;;;;;13.87;9.90;;;15.30;99.90;;;;;;4950365;29;21322;-68
2022/11/15 13:14:41;;;;;;;15.33;8.60;;;15.40;99.90;;;;;;4951567;29;20414;-68